sensor_id;sensor_type;location;lat;lon;timestamp;P1;durP1;ratioP1;P2;durP2;ratioP2
21148;SDS011;10732;51.472;6.466;2023-02-28T00:00:17;9.67;;;6.30;;
21148;SDS011;10732;51.472;6.466;2023-02-28T00:02:44;9.17;;;5.60;;
21148;SDS011;10732;51.472;6.466;2023-02-28T00:05:11;8.17;;;6.13;;
21148;SDS011;10732;51.472;6.466;2023-02-28T00:07:38;8.00;;;6.07;;
21148;SDS011;10732;51.472;6.466;2023-02-28T00:10:05;9.70;;;6.30;;
21148;SDS011;10732;51.472;6.466;2023-02-28T00:12:32;10.13;;;6.30;;
21148;SDS011;10732;51.472;6.466;2023-02-28T00:14:59;13.10;;;7.20;;
21148;SDS011;10732;51.472;6.466;2023-02-28T00:17:26;9.23;;;6.50;;
21148;SDS011;10732;51.472;6.466;2023-02-28T00:19:51;9.27;;;6.90;;
21148;SDS011;10732;51.472;6.466;2023-02-28T00:22:18;8.73;;;6.40;;
21148;SDS011;10732;51.472;6.466;2023-02-28T00:24:45;9.13;;;7.00;;
21148;SDS011;10732;51.472;6.466;2023-02-28T00:27:11;11.50;;;7.07;;
21148;SDS011;10732;51.472;6.466;2023-02-28T00:29:38;9.10;;;7.13;;
21148;SDS011;10732;51.472;6.466;2023-02-28T00:32:04;9.10;;;7.10;;
21148;SDS011;10732;51.472;6.466;2023-02-28T00:34:30;10.47;;;7.13;;
21148;SDS011;10732;51.472;6.466;2023-02-28T00:36:56;8.47;;;6.80;;
21148;SDS011;10732;51.472;6.466;2023-02-28T00:39:22;10.33;;;6.87;;
21148;SDS011;10732;51.472;6.466;2023-02-28T00:41:47;9.70;;;6.80;;
21148;SDS011;10732;51.472;6.466;2023-02-28T00:44:13;10.37;;;6.57;;
21148;SDS011;10732;51.472;6.466;2023-02-28T00:46:38;9.13;;;7.13;;
21148;SDS011;10732;51.472;6.466;2023-02-28T00:49:04;11.30;;;7.30;;
21148;SDS011;10732;51.472;6.466;2023-02-28T00:51:29;9.10;;;6.87;;
21148;SDS011;10732;51.472;6.466;2023-02-28T00:53:55;10.27;;;6.73;;
21148;SDS011;10732;51.472;6.466;2023-02-28T00:56:21;10.77;;;7.57;;
21148;SDS011;10732;51.472;6.466;2023-02-28T00:58:46;8.87;;;6.90;;
21148;SDS011;10732;51.472;6.466;2023-02-28T01:01:12;9.07;;;7.03;;
21148;SDS011;10732;51.472;6.466;2023-02-28T01:03:37;10.07;;;7.30;;
21148;SDS011;10732;51.472;6.466;2023-02-28T01:06:03;9.87;;;7.37;;
21148;SDS011;10732;51.472;6.466;2023-02-28T01:08:29;9.67;;;6.70;;
21148;SDS011;10732;51.472;6.466;2023-02-28T01:10:55;8.80;;;6.83;;
21148;SDS011;10732;51.472;6.466;2023-02-28T01:13:21;7.47;;;6.67;;
21148;SDS011;10732;51.472;6.466;2023-02-28T01:15:52;9.87;;;7.47;;
21148;SDS011;10732;51.472;6.466;2023-02-28T01:18:20;9.50;;;7.57;;
21148;SDS011;10732;51.472;6.466;2023-02-28T01:20:46;12.20;;;7.90;;
21148;SDS011;10732;51.472;6.466;2023-02-28T01:23:12;10.43;;;7.27;;
21148;SDS011;10732;51.472;6.466;2023-02-28T01:25:38;9.50;;;7.37;;
21148;SDS011;10732;51.472;6.466;2023-02-28T01:28:04;9.27;;;6.60;;
21148;SDS011;10732;51.472;6.466;2023-02-28T01:30:30;11.23;;;6.87;;
21148;SDS011;10732;51.472;6.466;2023-02-28T01:32:56;9.80;;;6.80;;
21148;SDS011;10732;51.472;6.466;2023-02-28T01:35:22;10.87;;;6.67;;
21148;SDS011;10732;51.472;6.466;2023-02-28T01:37:48;8.17;;;6.40;;
21148;SDS011;10732;51.472;6.466;2023-02-28T01:40:13;8.97;;;6.37;;
21148;SDS011;10732;51.472;6.466;2023-02-28T01:42:39;10.00;;;6.63;;
21148;SDS011;10732;51.472;6.466;2023-02-28T01:47:57;11.83;;;7.50;;
21148;SDS011;10732;51.472;6.466;2023-02-28T01:50:28;8.57;;;6.73;;
21148;SDS011;10732;51.472;6.466;2023-02-28T01:52:56;14.03;;;7.23;;
21148;SDS011;10732;51.472;6.466;2023-02-28T01:55:26;8.23;;;6.40;;
21148;SDS011;10732;51.472;6.466;2023-02-28T01:57:55;9.73;;;6.47;;
21148;SDS011;10732;51.472;6.466;2023-02-28T02:00:23;11.67;;;7.53;;
21148;SDS011;10732;51.472;6.466;2023-02-28T02:02:53;7.03;;;6.17;;
21148;SDS011;10732;51.472;6.466;2023-02-28T02:05:22;10.97;;;6.97;;
21148;SDS011;10732;51.472;6.466;2023-02-28T02:07:56;11.70;;;7.37;;
21148;SDS011;10732;51.472;6.466;2023-02-28T02:18:40;11.30;;;7.10;;
21148;SDS011;10732;51.472;6.466;2023-02-28T02:24:33;10.50;;;6.97;;
21148;SDS011;10732;51.472;6.466;2023-02-28T02:30:03;10.23;;;7.10;;
21148;SDS011;10732;51.472;6.466;2023-02-28T02:41:10;8.60;;;6.93;;
21148;SDS011;10732;51.472;6.466;2023-02-28T02:43:40;10.27;;;7.10;;
21148;SDS011;10732;51.472;6.466;2023-02-28T02:46:17;10.70;;;7.00;;
21148;SDS011;10732;51.472;6.466;2023-02-28T02:48:57;8.60;;;6.90;;
21148;SDS011;10732;51.472;6.466;2023-02-28T02:51:25;11.40;;;7.60;;
21148;SDS011;10732;51.472;6.466;2023-02-28T02:54:04;9.13;;;7.10;;
21148;SDS011;10732;51.472;6.466;2023-02-28T02:56:59;10.83;;;7.33;;
21148;SDS011;10732;51.472;6.466;2023-02-28T02:59:28;10.20;;;6.70;;
21148;SDS011;10732;51.472;6.466;2023-02-28T03:01:56;9.53;;;7.03;;
21148;SDS011;10732;51.472;6.466;2023-02-28T03:04:25;10.27;;;7.17;;
21148;SDS011;10732;51.472;6.466;2023-02-28T03:06:55;10.40;;;6.87;;
21148;SDS011;10732;51.472;6.466;2023-02-28T03:09:24;8.90;;;7.13;;
21148;SDS011;10732;51.472;6.466;2023-02-28T03:11:51;9.47;;;7.10;;
21148;SDS011;10732;51.472;6.466;2023-02-28T03:22:24;10.63;;;7.50;;
21148;SDS011;10732;51.472;6.466;2023-02-28T03:25:07;10.43;;;7.30;;
21148;SDS011;10732;51.472;6.466;2023-02-28T03:27:55;9.33;;;7.20;;
21148;SDS011;10732;51.472;6.466;2023-02-28T03:33:20;10.83;;;7.77;;
21148;SDS011;10732;51.472;6.466;2023-02-28T03:35:52;10.67;;;7.10;;
21148;SDS011;10732;51.472;6.466;2023-02-28T03:41:12;12.80;;;8.07;;
21148;SDS011;10732;51.472;6.466;2023-02-28T03:43:41;9.83;;;7.63;;
21148;SDS011;10732;51.472;6.466;2023-02-28T03:46:13;8.43;;;7.60;;
21148;SDS011;10732;51.472;6.466;2023-02-28T03:48:44;9.63;;;7.70;;
21148;SDS011;10732;51.472;6.466;2023-02-28T03:51:14;13.13;;;9.30;;
21148;SDS011;10732;51.472;6.466;2023-02-28T03:53:53;13.93;;;9.70;;
21148;SDS011;10732;51.472;6.466;2023-02-28T03:57:26;12.07;;;8.80;;
21148;SDS011;10732;51.472;6.466;2023-02-28T03:59:28;11.33;;;9.20;;
21148;SDS011;10732;51.472;6.466;2023-02-28T04:01:59;12.37;;;9.10;;
21148;SDS011;10732;51.472;6.466;2023-02-28T04:04:25;13.23;;;9.67;;
21148;SDS011;10732;51.472;6.466;2023-02-28T04:06:51;12.53;;;9.13;;
21148;SDS011;10732;51.472;6.466;2023-02-28T04:09:17;13.17;;;9.17;;
21148;SDS011;10732;51.472;6.466;2023-02-28T04:11:44;13.10;;;10.30;;
21148;SDS011;10732;51.472;6.466;2023-02-28T04:14:16;15.10;;;10.03;;
21148;SDS011;10732;51.472;6.466;2023-02-28T04:16:42;11.70;;;9.37;;
21148;SDS011;10732;51.472;6.466;2023-02-28T04:19:09;11.83;;;9.50;;
21148;SDS011;10732;51.472;6.466;2023-02-28T04:21:54;12.47;;;9.20;;
21148;SDS011;10732;51.472;6.466;2023-02-28T04:24:21;12.53;;;9.00;;
21148;SDS011;10732;51.472;6.466;2023-02-28T04:26:50;11.47;;;9.10;;
21148;SDS011;10732;51.472;6.466;2023-02-28T04:29:22;13.33;;;10.23;;
21148;SDS011;10732;51.472;6.466;2023-02-28T04:31:49;13.40;;;10.13;;
21148;SDS011;10732;51.472;6.466;2023-02-28T04:34:15;14.60;;;10.17;;
21148;SDS011;10732;51.472;6.466;2023-02-28T04:36:41;12.30;;;9.50;;
21148;SDS011;10732;51.472;6.466;2023-02-28T04:39:07;11.90;;;9.30;;
21148;SDS011;10732;51.472;6.466;2023-02-28T04:41:34;13.37;;;9.33;;
21148;SDS011;10732;51.472;6.466;2023-02-28T04:44:00;12.23;;;9.17;;
21148;SDS011;10732;51.472;6.466;2023-02-28T04:46:25;14.73;;;9.07;;
21148;SDS011;10732;51.472;6.466;2023-02-28T04:48:51;12.23;;;9.00;;
21148;SDS011;10732;51.472;6.466;2023-02-28T04:51:17;11.43;;;8.83;;
21148;SDS011;10732;51.472;6.466;2023-02-28T04:53:44;13.17;;;8.60;;
21148;SDS011;10732;51.472;6.466;2023-02-28T04:56:14;11.03;;;8.30;;
21148;SDS011;10732;51.472;6.466;2023-02-28T04:58:41;10.00;;;8.13;;
21148;SDS011;10732;51.472;6.466;2023-02-28T05:01:18;11.70;;;8.57;;
21148;SDS011;10732;51.472;6.466;2023-02-28T05:03:45;13.43;;;8.57;;
21148;SDS011;10732;51.472;6.466;2023-02-28T05:06:12;9.87;;;7.30;;
21148;SDS011;10732;51.472;6.466;2023-02-28T05:08:38;11.30;;;7.90;;
21148;SDS011;10732;51.472;6.466;2023-02-28T05:11:05;11.73;;;8.77;;
21148;SDS011;10732;51.472;6.466;2023-02-28T05:13:33;12.73;;;8.37;;
21148;SDS011;10732;51.472;6.466;2023-02-28T05:15:59;13.17;;;8.50;;
21148;SDS011;10732;51.472;6.466;2023-02-28T05:18:25;10.30;;;8.17;;
21148;SDS011;10732;51.472;6.466;2023-02-28T05:20:50;11.30;;;7.47;;
21148;SDS011;10732;51.472;6.466;2023-02-28T05:23:16;10.43;;;7.53;;
21148;SDS011;10732;51.472;6.466;2023-02-28T05:25:44;12.20;;;8.37;;
21148;SDS011;10732;51.472;6.466;2023-02-28T05:28:10;11.43;;;8.50;;
21148;SDS011;10732;51.472;6.466;2023-02-28T05:30:35;11.93;;;7.97;;
21148;SDS011;10732;51.472;6.466;2023-02-28T05:33:01;11.37;;;7.57;;
21148;SDS011;10732;51.472;6.466;2023-02-28T05:35:27;9.20;;;7.33;;
21148;SDS011;10732;51.472;6.466;2023-02-28T05:37:52;10.13;;;7.47;;
21148;SDS011;10732;51.472;6.466;2023-02-28T05:40:18;11.80;;;8.43;;
21148;SDS011;10732;51.472;6.466;2023-02-28T05:42:45;10.03;;;7.73;;
21148;SDS011;10732;51.472;6.466;2023-02-28T05:45:11;12.43;;;7.60;;
21148;SDS011;10732;51.472;6.466;2023-02-28T05:47:37;9.57;;;7.73;;
21148;SDS011;10732;51.472;6.466;2023-02-28T05:50:03;8.53;;;6.90;;
21148;SDS011;10732;51.472;6.466;2023-02-28T05:52:29;7.43;;;6.63;;
21148;SDS011;10732;51.472;6.466;2023-02-28T05:54:55;9.27;;;6.50;;
21148;SDS011;10732;51.472;6.466;2023-02-28T05:57:21;8.03;;;6.30;;
21148;SDS011;10732;51.472;6.466;2023-02-28T05:59:47;8.10;;;6.40;;
21148;SDS011;10732;51.472;6.466;2023-02-28T06:02:13;8.30;;;6.10;;
21148;SDS011;10732;51.472;6.466;2023-02-28T06:04:40;8.87;;;6.30;;
21148;SDS011;10732;51.472;6.466;2023-02-28T06:07:06;8.60;;;5.93;;
21148;SDS011;10732;51.472;6.466;2023-02-28T06:09:32;7.73;;;5.53;;
21148;SDS011;10732;51.472;6.466;2023-02-28T06:11:59;7.50;;;5.43;;
21148;SDS011;10732;51.472;6.466;2023-02-28T06:14:28;8.20;;;5.20;;
21148;SDS011;10732;51.472;6.466;2023-02-28T06:16:56;7.77;;;5.43;;
21148;SDS011;10732;51.472;6.466;2023-02-28T06:19:22;7.37;;;4.93;;
21148;SDS011;10732;51.472;6.466;2023-02-28T06:21:50;9.30;;;5.43;;
21148;SDS011;10732;51.472;6.466;2023-02-28T06:24:17;7.70;;;5.77;;
21148;SDS011;10732;51.472;6.466;2023-02-28T06:26:43;7.83;;;6.10;;
21148;SDS011;10732;51.472;6.466;2023-02-28T06:29:09;8.60;;;5.93;;
21148;SDS011;10732;51.472;6.466;2023-02-28T06:31:35;7.37;;;5.80;;
21148;SDS011;10732;51.472;6.466;2023-02-28T06:34:00;8.40;;;6.07;;
21148;SDS011;10732;51.472;6.466;2023-02-28T06:36:26;11.53;;;7.20;;
21148;SDS011;10732;51.472;6.466;2023-02-28T06:38:51;13.20;;;7.47;;
21148;SDS011;10732;51.472;6.466;2023-02-28T06:41:20;8.93;;;6.67;;
21148;SDS011;10732;51.472;6.466;2023-02-28T06:43:49;8.07;;;6.80;;
21148;SDS011;10732;51.472;6.466;2023-02-28T06:46:15;8.00;;;6.23;;
21148;SDS011;10732;51.472;6.466;2023-02-28T06:48:40;7.33;;;6.17;;
21148;SDS011;10732;51.472;6.466;2023-02-28T06:51:12;8.70;;;6.03;;
21148;SDS011;10732;51.472;6.466;2023-02-28T06:53:40;6.17;;;5.53;;
21148;SDS011;10732;51.472;6.466;2023-02-28T06:56:06;7.60;;;5.57;;
21148;SDS011;10732;51.472;6.466;2023-02-28T06:58:35;13.77;;;5.90;;
21148;SDS011;10732;51.472;6.466;2023-02-28T07:01:01;7.83;;;5.30;;
21148;SDS011;10732;51.472;6.466;2023-02-28T07:03:27;6.63;;;5.00;;
21148;SDS011;10732;51.472;6.466;2023-02-28T07:05:52;7.13;;;5.00;;
21148;SDS011;10732;51.472;6.466;2023-02-28T07:08:18;8.50;;;5.10;;
21148;SDS011;10732;51.472;6.466;2023-02-28T07:10:44;7.17;;;4.97;;
21148;SDS011;10732;51.472;6.466;2023-02-28T07:13:09;9.87;;;4.97;;
21148;SDS011;10732;51.472;6.466;2023-02-28T07:15:36;6.57;;;4.90;;
21148;SDS011;10732;51.472;6.466;2023-02-28T07:18:01;7.20;;;5.07;;
21148;SDS011;10732;51.472;6.466;2023-02-28T07:20:28;7.10;;;4.77;;
21148;SDS011;10732;51.472;6.466;2023-02-28T07:22:54;7.10;;;4.80;;
21148;SDS011;10732;51.472;6.466;2023-02-28T07:25:23;6.40;;;4.90;;
21148;SDS011;10732;51.472;6.466;2023-02-28T07:27:49;7.60;;;4.90;;
21148;SDS011;10732;51.472;6.466;2023-02-28T07:30:15;7.50;;;4.87;;
21148;SDS011;10732;51.472;6.466;2023-02-28T07:32:41;8.20;;;4.83;;
21148;SDS011;10732;51.472;6.466;2023-02-28T07:35:06;6.27;;;4.53;;
21148;SDS011;10732;51.472;6.466;2023-02-28T07:37:33;5.43;;;4.13;;
21148;SDS011;10732;51.472;6.466;2023-02-28T07:40:05;6.77;;;4.20;;
21148;SDS011;10732;51.472;6.466;2023-02-28T07:42:36;6.10;;;4.67;;
21148;SDS011;10732;51.472;6.466;2023-02-28T07:45:02;5.87;;;4.30;;
21148;SDS011;10732;51.472;6.466;2023-02-28T07:47:29;12.23;;;5.57;;
21148;SDS011;10732;51.472;6.466;2023-02-28T07:49:55;5.57;;;4.37;;
21148;SDS011;10732;51.472;6.466;2023-02-28T07:52:21;6.17;;;4.27;;
21148;SDS011;10732;51.472;6.466;2023-02-28T07:54:48;5.07;;;4.40;;
21148;SDS011;10732;51.472;6.466;2023-02-28T07:57:14;7.23;;;4.43;;
21148;SDS011;10732;51.472;6.466;2023-02-28T07:59:39;6.47;;;4.37;;
21148;SDS011;10732;51.472;6.466;2023-02-28T08:02:05;6.93;;;4.90;;
21148;SDS011;10732;51.472;6.466;2023-02-28T08:04:31;7.80;;;4.60;;
21148;SDS011;10732;51.472;6.466;2023-02-28T08:06:57;6.53;;;4.97;;
21148;SDS011;10732;51.472;6.466;2023-02-28T08:09:23;7.03;;;4.80;;
21148;SDS011;10732;51.472;6.466;2023-02-28T08:11:49;9.47;;;4.87;;
21148;SDS011;10732;51.472;6.466;2023-02-28T08:14:15;6.03;;;4.60;;
21148;SDS011;10732;51.472;6.466;2023-02-28T08:16:41;6.60;;;4.00;;
21148;SDS011;10732;51.472;6.466;2023-02-28T08:19:07;4.60;;;3.47;;
21148;SDS011;10732;51.472;6.466;2023-02-28T08:21:36;5.13;;;3.25;;
21148;SDS011;10732;51.472;6.466;2023-02-28T08:24:02;7.35;;;3.75;;
21148;SDS011;10732;51.472;6.466;2023-02-28T08:26:28;5.47;;;3.33;;
21148;SDS011;10732;51.472;6.466;2023-02-28T08:28:53;5.35;;;3.35;;
21148;SDS011;10732;51.472;6.466;2023-02-28T08:31:19;6.03;;;3.00;;
21148;SDS011;10732;51.472;6.466;2023-02-28T08:33:45;7.15;;;3.30;;
21148;SDS011;10732;51.472;6.466;2023-02-28T08:36:13;5.13;;;3.25;;
21148;SDS011;10732;51.472;6.466;2023-02-28T08:38:39;6.68;;;3.47;;
21148;SDS011;10732;51.472;6.466;2023-02-28T08:41:06;8.77;;;3.50;;
21148;SDS011;10732;51.472;6.466;2023-02-28T08:43:34;5.85;;;3.50;;
21148;SDS011;10732;51.472;6.466;2023-02-28T08:46:00;5.90;;;3.15;;
21148;SDS011;10732;51.472;6.466;2023-02-28T08:48:26;8.25;;;3.67;;
21148;SDS011;10732;51.472;6.466;2023-02-28T08:50:57;7.05;;;3.25;;
21148;SDS011;10732;51.472;6.466;2023-02-28T08:53:24;8.20;;;3.40;;
21148;SDS011;10732;51.472;6.466;2023-02-28T08:55:59;6.47;;;3.15;;
21148;SDS011;10732;51.472;6.466;2023-02-28T08:58:26;4.57;;;2.83;;
21148;SDS011;10732;51.472;6.466;2023-02-28T09:00:52;7.70;;;3.10;;
21148;SDS011;10732;51.472;6.466;2023-02-28T09:03:18;5.10;;;3.50;;
21148;SDS011;10732;51.472;6.466;2023-02-28T09:05:55;8.38;;;3.33;;
21148;SDS011;10732;51.472;6.466;2023-02-28T09:08:21;5.95;;;2.80;;
21148;SDS011;10732;51.472;6.466;2023-02-28T09:10:48;5.80;;;2.88;;
21148;SDS011;10732;51.472;6.466;2023-02-28T09:13:14;4.47;;;2.63;;
21148;SDS011;10732;51.472;6.466;2023-02-28T09:15:39;6.28;;;3.03;;
21148;SDS011;10732;51.472;6.466;2023-02-28T09:18:05;5.53;;;2.50;;
21148;SDS011;10732;51.472;6.466;2023-02-28T09:20:30;3.83;;;2.45;;
21148;SDS011;10732;51.472;6.466;2023-02-28T09:22:56;6.28;;;2.65;;
21148;SDS011;10732;51.472;6.466;2023-02-28T09:25:21;5.25;;;2.90;;
21148;SDS011;10732;51.472;6.466;2023-02-28T09:27:47;4.28;;;2.70;;
21148;SDS011;10732;51.472;6.466;2023-02-28T09:30:13;6.03;;;2.58;;
21148;SDS011;10732;51.472;6.466;2023-02-28T09:32:39;2.85;;;2.40;;
21148;SDS011;10732;51.472;6.466;2023-02-28T09:35:05;3.88;;;2.05;;
21148;SDS011;10732;51.472;6.466;2023-02-28T09:37:31;4.18;;;1.92;;
21148;SDS011;10732;51.472;6.466;2023-02-28T09:39:57;2.65;;;2.20;;
21148;SDS011;10732;51.472;6.466;2023-02-28T09:42:32;3.60;;;2.33;;
21148;SDS011;10732;51.472;6.466;2023-02-28T09:45:00;5.07;;;2.20;;
21148;SDS011;10732;51.472;6.466;2023-02-28T09:47:33;5.57;;;1.98;;
21148;SDS011;10732;51.472;6.466;2023-02-28T09:52:51;2.30;;;1.85;;
21148;SDS011;10732;51.472;6.466;2023-02-28T09:57:54;5.25;;;1.73;;
21148;SDS011;10732;51.472;6.466;2023-02-28T10:00:27;3.80;;;1.83;;
21148;SDS011;10732;51.472;6.466;2023-02-28T10:05:50;2.75;;;1.75;;
21148;SDS011;10732;51.472;6.466;2023-02-28T10:08:27;1.92;;;1.73;;
21148;SDS011;10732;51.472;6.466;2023-02-28T10:10:57;6.28;;;1.75;;
21148;SDS011;10732;51.472;6.466;2023-02-28T10:13:27;5.13;;;1.88;;
21148;SDS011;10732;51.472;6.466;2023-02-28T10:16:07;3.53;;;1.67;;
21148;SDS011;10732;51.472;6.466;2023-02-28T10:18:44;2.92;;;1.52;;
21148;SDS011;10732;51.472;6.466;2023-02-28T10:21:15;2.30;;;1.73;;
21148;SDS011;10732;51.472;6.466;2023-02-28T10:23:48;2.33;;;1.50;;
21148;SDS011;10732;51.472;6.466;2023-02-28T10:26:17;2.80;;;1.40;;
21148;SDS011;10732;51.472;6.466;2023-02-28T10:28:42;6.00;;;1.50;;
21148;SDS011;10732;51.472;6.466;2023-02-28T10:31:14;2.05;;;1.60;;
21148;SDS011;10732;51.472;6.466;2023-02-28T10:33:43;3.17;;;1.77;;
21148;SDS011;10732;51.472;6.466;2023-02-28T10:36:17;3.30;;;1.80;;
21148;SDS011;10732;51.472;6.466;2023-02-28T10:38:45;3.13;;;1.90;;
21148;SDS011;10732;51.472;6.466;2023-02-28T10:41:16;2.10;;;1.58;;
21148;SDS011;10732;51.472;6.466;2023-02-28T10:43:52;3.85;;;1.70;;
21148;SDS011;10732;51.472;6.466;2023-02-28T10:46:39;2.08;;;1.88;;
21148;SDS011;10732;51.472;6.466;2023-02-28T10:49:11;2.00;;;1.70;;
21148;SDS011;10732;51.472;6.466;2023-02-28T10:51:59;1.90;;;1.60;;
21148;SDS011;10732;51.472;6.466;2023-02-28T10:54:33;3.00;;;1.70;;
21148;SDS011;10732;51.472;6.466;2023-02-28T10:59:52;4.43;;;1.85;;
21148;SDS011;10732;51.472;6.466;2023-02-28T11:02:38;6.40;;;2.20;;
21148;SDS011;10732;51.472;6.466;2023-02-28T11:07:55;2.30;;;1.80;;
21148;SDS011;10732;51.472;6.466;2023-02-28T11:10:44;2.47;;;1.73;;
21148;SDS011;10732;51.472;6.466;2023-02-28T11:13:19;2.55;;;2.20;;
21148;SDS011;10732;51.472;6.466;2023-02-28T11:15:51;2.25;;;1.98;;
21148;SDS011;10732;51.472;6.466;2023-02-28T11:20:51;2.95;;;2.17;;
21148;SDS011;10732;51.472;6.466;2023-02-28T11:23:19;2.45;;;1.70;;
21148;SDS011;10732;51.472;6.466;2023-02-28T11:25:50;2.30;;;1.60;;
21148;SDS011;10732;51.472;6.466;2023-02-28T11:28:35;2.58;;;2.08;;
21148;SDS011;10732;51.472;6.466;2023-02-28T11:33:44;4.43;;;2.30;;
21148;SDS011;10732;51.472;6.466;2023-02-28T11:36:14;5.07;;;2.28;;
21148;SDS011;10732;51.472;6.466;2023-02-28T11:38:43;3.13;;;2.30;;
21148;SDS011;10732;51.472;6.466;2023-02-28T11:41:14;3.50;;;2.28;;
21148;SDS011;10732;51.472;6.466;2023-02-28T11:46:57;3.47;;;2.53;;
21148;SDS011;10732;51.472;6.466;2023-02-28T12:03:39;4.13;;;2.00;;
21148;SDS011;10732;51.472;6.466;2023-02-28T12:06:21;2.53;;;2.13;;
21148;SDS011;10732;51.472;6.466;2023-02-28T12:09:04;3.85;;;2.03;;
21148;SDS011;10732;51.472;6.466;2023-02-28T12:11:52;3.05;;;2.03;;
21148;SDS011;10732;51.472;6.466;2023-02-28T12:27:25;3.60;;;2.38;;
21148;SDS011;10732;51.472;6.466;2023-02-28T12:29:55;2.90;;;2.10;;
21148;SDS011;10732;51.472;6.466;2023-02-28T12:32:33;3.05;;;2.00;;
21148;SDS011;10732;51.472;6.466;2023-02-28T12:37:41;6.00;;;2.20;;
21148;SDS011;10732;51.472;6.466;2023-02-28T12:40:22;3.15;;;2.20;;
21148;SDS011;10732;51.472;6.466;2023-02-28T12:42:52;3.72;;;2.50;;
21148;SDS011;10732;51.472;6.466;2023-02-28T12:45:26;3.03;;;2.05;;
21148;SDS011;10732;51.472;6.466;2023-02-28T12:48:05;3.67;;;2.17;;
21148;SDS011;10732;51.472;6.466;2023-02-28T12:50:33;3.97;;;2.63;;
21148;SDS011;10732;51.472;6.466;2023-02-28T12:53:09;4.03;;;2.17;;
21148;SDS011;10732;51.472;6.466;2023-02-28T12:56:04;2.50;;;2.05;;
21148;SDS011;10732;51.472;6.466;2023-02-28T12:58:37;3.85;;;1.92;;
21148;SDS011;10732;51.472;6.466;2023-02-28T13:09:55;4.63;;;2.67;;
21148;SDS011;10732;51.472;6.466;2023-02-28T13:12:22;3.70;;;2.50;;
21148;SDS011;10732;51.472;6.466;2023-02-28T13:14:49;3.70;;;2.40;;
21148;SDS011;10732;51.472;6.466;2023-02-28T13:17:18;5.63;;;2.63;;
21148;SDS011;10732;51.472;6.466;2023-02-28T13:27:51;3.20;;;2.40;;
21148;SDS011;10732;51.472;6.466;2023-02-28T13:33:31;3.80;;;2.30;;
21148;SDS011;10732;51.472;6.466;2023-02-28T13:36:12;2.80;;;2.33;;
21148;SDS011;10732;51.472;6.466;2023-02-28T13:38:55;4.88;;;2.40;;
21148;SDS011;10732;51.472;6.466;2023-02-28T13:43:58;4.47;;;2.88;;
21148;SDS011;10732;51.472;6.466;2023-02-28T13:46:33;4.15;;;2.50;;
21148;SDS011;10732;51.472;6.466;2023-02-28T13:49:18;4.35;;;2.70;;
21148;SDS011;10732;51.472;6.466;2023-02-28T13:51:48;3.78;;;2.63;;
21148;SDS011;10732;51.472;6.466;2023-02-28T13:54:34;2.80;;;2.40;;
21148;SDS011;10732;51.472;6.466;2023-02-28T14:00:13;6.30;;;3.20;;
21148;SDS011;10732;51.472;6.466;2023-02-28T14:03:03;4.43;;;2.50;;
21148;SDS011;10732;51.472;6.466;2023-02-28T14:11:30;3.20;;;2.90;;
21148;SDS011;10732;51.472;6.466;2023-02-28T14:13:58;5.25;;;2.70;;
21148;SDS011;10732;51.472;6.466;2023-02-28T14:16:25;4.22;;;2.70;;
21148;SDS011;10732;51.472;6.466;2023-02-28T14:27:32;3.22;;;2.40;;
21148;SDS011;10732;51.472;6.466;2023-02-28T14:30:37;4.35;;;2.63;;
21148;SDS011;10732;51.472;6.466;2023-02-28T14:38:54;3.13;;;2.50;;
21148;SDS011;10732;51.472;6.466;2023-02-28T14:43:49;3.30;;;2.42;;
21148;SDS011;10732;51.472;6.466;2023-02-28T14:46:17;3.25;;;2.60;;
21148;SDS011;10732;51.472;6.466;2023-02-28T14:48:45;3.97;;;2.30;;
21148;SDS011;10732;51.472;6.466;2023-02-28T14:51:18;3.17;;;2.67;;
21148;SDS011;10732;51.472;6.466;2023-02-28T14:53:48;2.92;;;2.63;;
21148;SDS011;10732;51.472;6.466;2023-02-28T14:56:19;3.90;;;2.60;;
21148;SDS011;10732;51.472;6.466;2023-02-28T14:58:50;7.03;;;2.72;;
21148;SDS011;10732;51.472;6.466;2023-02-28T15:01:18;4.07;;;2.55;;
21148;SDS011;10732;51.472;6.466;2023-02-28T15:03:47;4.35;;;2.47;;
21148;SDS011;10732;51.472;6.466;2023-02-28T15:06:21;2.83;;;2.33;;
21148;SDS011;10732;51.472;6.466;2023-02-28T15:08:47;4.78;;;2.40;;
21148;SDS011;10732;51.472;6.466;2023-02-28T15:11:31;2.85;;;2.30;;
21148;SDS011;10732;51.472;6.466;2023-02-28T15:13:57;3.58;;;2.40;;
21148;SDS011;10732;51.472;6.466;2023-02-28T15:16:28;3.25;;;2.22;;
21148;SDS011;10732;51.472;6.466;2023-02-28T15:18:57;2.90;;;2.42;;
21148;SDS011;10732;51.472;6.466;2023-02-28T15:21:28;5.35;;;2.00;;
21148;SDS011;10732;51.472;6.466;2023-02-28T15:26:27;3.10;;;2.13;;
21148;SDS011;10732;51.472;6.466;2023-02-28T15:29:02;4.00;;;2.25;;
21148;SDS011;10732;51.472;6.466;2023-02-28T15:31:51;4.22;;;2.28;;
21148;SDS011;10732;51.472;6.466;2023-02-28T15:37:06;2.88;;;2.22;;
21148;SDS011;10732;51.472;6.466;2023-02-28T15:39:50;4.65;;;2.20;;
21148;SDS011;10732;51.472;6.466;2023-02-28T15:42:19;2.83;;;2.38;;
21148;SDS011;10732;51.472;6.466;2023-02-28T15:44:46;8.60;;;2.38;;
21148;SDS011;10732;51.472;6.466;2023-02-28T15:47:25;2.53;;;2.00;;
21148;SDS011;10732;51.472;6.466;2023-02-28T15:49:53;3.35;;;2.40;;
21148;SDS011;10732;51.472;6.466;2023-02-28T15:52:27;3.10;;;2.53;;
21148;SDS011;10732;51.472;6.466;2023-02-28T15:57:47;3.60;;;2.88;;
21148;SDS011;10732;51.472;6.466;2023-02-28T16:00:18;3.63;;;2.60;;
21148;SDS011;10732;51.472;6.466;2023-02-28T16:02:46;4.55;;;2.60;;
21148;SDS011;10732;51.472;6.466;2023-02-28T16:05:17;3.08;;;2.50;;
21148;SDS011;10732;51.472;6.466;2023-02-28T16:07:52;3.80;;;2.90;;
21148;SDS011;10732;51.472;6.466;2023-02-28T16:10:22;3.38;;;2.95;;
21148;SDS011;10732;51.472;6.466;2023-02-28T16:12:52;5.65;;;2.92;;
21148;SDS011;10732;51.472;6.466;2023-02-28T16:15:22;4.68;;;2.67;;
21148;SDS011;10732;51.472;6.466;2023-02-28T16:17:53;5.32;;;2.90;;
21148;SDS011;10732;51.472;6.466;2023-02-28T16:22:45;4.80;;;2.60;;
21148;SDS011;10732;51.472;6.466;2023-02-28T16:25:12;4.05;;;3.03;;
21148;SDS011;10732;51.472;6.466;2023-02-28T16:27:39;5.05;;;2.53;;
21148;SDS011;10732;51.472;6.466;2023-02-28T16:30:06;4.90;;;2.90;;
21148;SDS011;10732;51.472;6.466;2023-02-28T16:32:35;4.57;;;2.83;;
21148;SDS011;10732;51.472;6.466;2023-02-28T16:35:01;4.47;;;2.65;;
21148;SDS011;10732;51.472;6.466;2023-02-28T16:37:27;4.22;;;2.60;;
21148;SDS011;10732;51.472;6.466;2023-02-28T16:39:53;4.03;;;2.60;;
21148;SDS011;10732;51.472;6.466;2023-02-28T16:42:20;5.30;;;2.88;;
21148;SDS011;10732;51.472;6.466;2023-02-28T16:44:50;6.28;;;2.80;;
21148;SDS011;10732;51.472;6.466;2023-02-28T16:47:17;5.25;;;3.78;;
21148;SDS011;10732;51.472;6.466;2023-02-28T16:49:43;4.00;;;3.25;;
21148;SDS011;10732;51.472;6.466;2023-02-28T17:04:37;3.70;;;2.75;;
21148;SDS011;10732;51.472;6.466;2023-02-28T17:07:03;4.20;;;2.95;;
21148;SDS011;10732;51.472;6.466;2023-02-28T17:12:33;3.50;;;2.80;;
21148;SDS011;10732;51.472;6.466;2023-02-28T17:15:00;4.15;;;2.67;;
21148;SDS011;10732;51.472;6.466;2023-02-28T17:20:48;4.82;;;3.22;;
21148;SDS011;10732;51.472;6.466;2023-02-28T17:23:21;5.03;;;3.05;;
21148;SDS011;10732;51.472;6.466;2023-02-28T17:25:47;5.43;;;3.05;;
21148;SDS011;10732;51.472;6.466;2023-02-28T17:28:33;4.60;;;3.17;;
21148;SDS011;10732;51.472;6.466;2023-02-28T17:30:59;6.43;;;3.60;;
21148;SDS011;10732;51.472;6.466;2023-02-28T17:33:34;4.95;;;3.10;;
21148;SDS011;10732;51.472;6.466;2023-02-28T17:35:59;5.50;;;3.83;;
21148;SDS011;10732;51.472;6.466;2023-02-28T17:38:32;5.07;;;3.80;;
21148;SDS011;10732;51.472;6.466;2023-02-28T17:41:01;6.15;;;3.55;;
21148;SDS011;10732;51.472;6.466;2023-02-28T17:43:28;7.07;;;3.85;;
21148;SDS011;10732;51.472;6.466;2023-02-28T17:46:02;4.53;;;3.25;;
21148;SDS011;10732;51.472;6.466;2023-02-28T17:58:18;6.85;;;3.78;;